Time;durP1;ratioP1;P1;durP2;ratioP2;P2;SDS_P1;SDS_P2;PMS_P1;PMS_P2;Temp;Humidity;BMP_temperature;BMP_pressure;BME280_temperature;BME280_humidity;BME280_pressure;Samples;Min_cycle;Max_cycle;Signal;HPM_P1;HPM_P2
2021/12/12 07:14:21;;;;;;;1.88;1.58;;;;;;;;;;6225930;22;20051;-82
2021/12/12 07:16:49;;;;;;;1.55;1.45;;;;;;;;;;6220566;23;20427;-82
2021/12/12 07:19:16;;;;;;;2.15;1.95;;;;;;;;;;6247423;23;20430;-83
2021/12/12 11:18:25;;;;;;;2.60;2.40;;;;;;;;;;6168460;23;20021;-82
2021/12/12 11:21:08;;;;;;;2.70;2.50;;;;;;;;;;6180663;23;20009;-86
2021/12/12 11:23:56;;;;;;;4.30;3.40;;;;;;;;;;6179967;23;20436;-84
2021/12/12 11:26:31;;;;;;;5.88;2.53;;;;;;;;;;6140674;23;20017;-81
2021/12/12 11:29:00;;;;;;;3.50;2.85;;;;;;;;;;6157380;23;20005;-81
2021/12/12 11:31:50;;;;;;;2.97;2.67;;;;;;;;;;6157010;23;20081;-82
2021/12/12 11:34:17;;;;;;;2.45;2.25;;;;;;;;;;6156901;23;20247;-82
2021/12/12 11:37:08;;;;;;;2.55;2.35;;;;;;;;;;6155541;23;20133;-82
2021/12/12 11:39:50;;;;;;;1.95;1.80;;;;;;;;;;6157342;23;20001;-83
2021/12/12 11:42:24;;;;;;;2.33;1.80;;;;;;;;;;6157536;23;20025;-84
2021/12/12 11:45:00;;;;;;;2.17;1.98;;;;;;;;;;6157055;23;20009;-84
2021/12/12 11:48:02;;;;;;;1.98;1.88;;;;;;;;;;6157343;23;20017;-85
2021/12/12 11:50:49;;;;;;;2.53;1.70;;;;;;;;;;6157261;23;20428;-82
2021/12/12 11:53:44;;;;;;;2.15;1.85;;;;;;;;;;6156692;23;20005;-81
2021/12/12 11:56:21;;;;;;;2.88;1.77;;;;;;;;;;6148735;23;20035;-85
2021/12/12 11:59:02;;;;;;;1.90;1.67;;;;;;;;;;6157187;23;20002;-83
2021/12/12 12:02:10;;;;;;;2.35;1.63;;;;;;;;;;6157150;23;20440;-83
2021/12/12 12:04:36;;;;;;;1.70;1.60;;;;;;;;;;6134820;23;20341;-83
2021/12/12 12:07:08;;;;;;;1.45;1.35;;;;;;;;;;6157100;23;20228;-84
2021/12/12 12:09:37;;;;;;;2.22;1.50;;;;;;;;;;6155251;23;20433;-81
2021/12/12 12:12:08;;;;;;;1.63;1.25;;;;;;;;;;6156775;23;20001;-81
2021/12/12 12:15:08;;;;;;;1.48;1.38;;;;;;;;;;6156579;23;20021;-81
2021/12/12 12:17:55;;;;;;;3.15;1.70;;;;;;;;;;6155094;23;20025;-81
2021/12/12 12:20:46;;;;;;;2.03;1.30;;;;;;;;;;6154879;23;20360;-81
2021/12/12 12:23:48;;;;;;;1.98;1.15;;;;;;;;;;6156629;23;20001;-80
2021/12/12 12:29:27;;;;;;;0.95;0.95;;;;;;;;;;6156371;23;20013;-80
2021/12/12 12:32:14;;;;;;;1.55;1.10;;;;;;;;;;6152021;23;20388;-80
2021/12/12 12:35:17;;;;;;;1.92;1.00;;;;;;;;;;6154676;23;20013;-79
2021/12/12 12:38:01;;;;;;;0.93;0.88;;;;;;;;;;6156602;23;20456;-79
2021/12/12 12:40:51;;;;;;;2.65;1.23;;;;;;;;;;6156630;23;20002;-79
2021/12/12 12:43:35;;;;;;;1.48;1.13;;;;;;;;;;6156819;23;20101;-80
2021/12/12 12:46:37;;;;;;;2.10;1.35;;;;;;;;;;6156461;23;20010;-80
2021/12/12 12:49:42;;;;;;;1.60;1.30;;;;;;;;;;6156347;23;20032;-81
2021/12/12 12:52:13;;;;;;;2.25;1.10;;;;;;;;;;6156333;23;20464;-82
2021/12/12 12:55:16;;;;;;;1.10;1.10;;;;;;;;;;6154705;23;20092;-82
2021/12/12 12:57:45;;;;;;;3.03;1.50;;;;;;;;;;6154726;23;20006;-81
2021/12/12 13:00:16;;;;;;;1.13;1.00;;;;;;;;;;6156501;23;20002;-80
2021/12/12 13:02:44;;;;;;;1.30;1.05;;;;;;;;;;6156493;23;20012;-80
2021/12/12 13:05:34;;;;;;;2.47;1.30;;;;;;;;;;6156194;23;20056;-81
2021/12/12 13:08:18;;;;;;;1.52;1.23;;;;;;;;;;6156423;23;20005;-81
2021/12/12 13:10:47;;;;;;;1.95;1.60;;;;;;;;;;6156490;23;20001;-81
2021/12/12 13:13:31;;;;;;;1.50;1.30;;;;;;;;;;6156406;23;20083;-81
2021/12/12 13:16:11;;;;;;;1.98;1.35;;;;;;;;;;6156412;23;20013;-81
2021/12/12 13:18:58;;;;;;;1.65;1.40;;;;;;;;;;6156268;23;20041;-81
2021/12/12 13:21:34;;;;;;;1.85;1.25;;;;;;;;;;6156461;23;20451;-81
2021/12/12 13:23:59;;;;;;;1.27;1.08;;;;;;;;;;6154504;23;20005;-82
2021/12/12 13:26:38;;;;;;;2.25;1.50;;;;;;;;;;6154719;23;20044;-81
2021/12/12 13:29:25;;;;;;;1.52;1.02;;;;;;;;;;6156660;23;20006;-79
2021/12/12 13:32:02;;;;;;;1.95;1.30;;;;;;;;;;6156350;23;20009;-84
2021/12/12 13:34:36;;;;;;;1.80;1.50;;;;;;;;;;6154164;23;20041;-84
2021/12/12 13:37:10;;;;;;;1.60;1.40;;;;;;;;;;6154790;23;20028;-84
2021/12/12 13:40:10;;;;;;;1.30;1.20;;;;;;;;;;6154793;23;20068;-85
2021/12/12 13:43:05;;;;;;;2.00;1.30;;;;;;;;;;6154616;23;20010;-84
2021/12/12 13:46:11;;;;;;;2.60;1.70;;;;;;;;;;6077491;23;20007;-84
2021/12/12 18:29:32;;;;;;;5.93;4.18;;;;;;;;;;6225617;22;21195;-87
2021/12/12 18:32:00;;;;;;;6.50;4.70;;;;;;;;;;6215791;23;20077;-85
2021/12/12 18:34:40;;;;;;;5.93;4.13;;;;;;;;;;6216385;23;20007;-85
2021/12/12 18:37:11;;;;;;;6.60;4.80;;;;;;;;;;6217712;23;20008;-86
2021/12/12 18:39:58;;;;;;;5.97;3.67;;;;;;;;;;6217749;23;20008;-81
2021/12/12 18:42:38;;;;;;;4.82;3.05;;;;;;;;;;6190503;23;20012;-79
2021/12/12 18:45:08;;;;;;;4.88;3.20;;;;;;;;;;6217555;23;20051;-84
2021/12/12 18:47:39;;;;;;;3.60;2.50;;;;;;;;;;6217666;23;20335;-79
2021/12/12 18:50:16;;;;;;;4.65;2.72;;;;;;;;;;6217300;23;20331;-87
2021/12/12 18:52:49;;;;;;;3.67;2.60;;;;;;;;;;6217640;23;20370;-84
2021/12/12 18:55:23;;;;;;;3.15;2.30;;;;;;;;;;6215834;23;20015;-82
2021/12/12 18:57:58;;;;;;;4.70;3.05;;;;;;;;;;6217834;23;20004;-84
2021/12/12 19:00:31;;;;;;;3.85;2.20;;;;;;;;;;6217568;23;20012;-86
2021/12/12 19:03:02;;;;;;;3.47;2.60;;;;;;;;;;6190999;23;20062;-82
2021/12/12 19:05:32;;;;;;;4.28;2.22;;;;;;;;;;6217348;23;20004;-84
2021/12/12 19:08:07;;;;;;;8.05;4.35;;;;;;;;;;6215645;23;20443;-81
2021/12/12 19:10:48;;;;;;;8.57;5.40;;;;;;;;;;6217306;23;20007;-87
2021/12/12 19:13:14;;;;;;;5.65;3.30;;;;;;;;;;6193541;23;20000;-87
2021/12/12 19:15:43;;;;;;;4.65;3.00;;;;;;;;;;6217349;23;20079;-90
2021/12/12 19:18:16;;;;;;;6.22;3.53;;;;;;;;;;6216248;23;20104;-80
2021/12/12 19:20:48;;;;;;;4.43;3.05;;;;;;;;;;6217772;23;20020;-90
2021/12/12 19:23:14;;;;;;;3.90;3.10;;;;;;;;;;6217387;23;20001;-84
2021/12/12 19:25:45;;;;;;;5.57;3.47;;;;;;;;;;6217726;23;20001;-91
2021/12/12 19:28:11;;;;;;;3.92;3.03;;;;;;;;;;6217694;23;20072;-89
2021/12/12 19:30:46;;;;;;;8.30;5.13;;;;;;;;;;6216457;23;20040;-86
2021/12/12 19:33:17;;;;;;;5.18;4.07;;;;;;;;;;6218046;23;20047;-81
2021/12/12 19:35:45;;;;;;;6.20;4.57;;;;;;;;;;6217333;23;20088;-84
2021/12/12 19:38:18;;;;;;;17.83;10.23;;;;;;;;;;6217247;23;20054;-84
2021/12/12 19:40:56;;;;;;;70.35;30.85;;;;;;;;;;6218213;23;20000;-85
2021/12/12 19:43:26;;;;;;;60.55;23.08;;;;;;;;;;6217539;23;20086;-84
2021/12/12 19:45:59;;;;;;;78.30;27.30;;;;;;;;;;6215011;23;20137;-81
2021/12/12 19:48:32;;;;;;;32.22;11.85;;;;;;;;;;6217213;23;20000;-86
2021/12/12 19:50:58;;;;;;;55.83;22.58;;;;;;;;;;6217161;23;20456;-85
2021/12/12 19:53:25;;;;;;;28.10;12.18;;;;;;;;;;6217384;23;20340;-79
2021/12/12 19:55:54;;;;;;;116.97;41.08;;;;;;;;;;6216856;23;20083;-89
2021/12/12 19:58:30;;;;;;;114.85;39.70;;;;;;;;;;6216559;23;20000;-78
2021/12/12 20:01:04;;;;;;;83.65;29.10;;;;;;;;;;6216754;23;20066;-78
2021/12/12 20:03:45;;;;;;;39.53;14.23;;;;;;;;;;6217172;23;20427;-84
2021/12/12 20:06:18;;;;;;;54.63;21.60;;;;;;;;;;6216893;23;20004;-86
2021/12/12 20:08:57;;;;;;;10.43;5.35;;;;;;;;;;6216721;23;20051;-86
2021/12/12 20:11:29;;;;;;;28.95;11.13;;;;;;;;;;6216675;23;20000;-86
2021/12/12 20:13:58;;;;;;;40.70;17.00;;;;;;;;;;6216955;23;20004;-89
2021/12/12 20:16:36;;;;;;;22.43;10.63;;;;;;;;;;6217012;23;20001;-91
2021/12/12 20:19:08;;;;;;;7.97;4.10;;;;;;;;;;6217016;23;20009;-82
2021/12/12 20:21:39;;;;;;;3.55;2.58;;;;;;;;;;6216911;23;20031;-90
2021/12/12 20:24:24;;;;;;;10.32;6.22;;;;;;;;;;6217004;23;20036;-89
2021/12/12 20:26:54;;;;;;;9.32;4.90;;;;;;;;;;6216671;23;20008;-81
2021/12/12 20:29:21;;;;;;;;;;;;;;;;;;6217799;23;20024;-90
2021/12/12 20:31:48;;;;;;;37.38;16.55;;;;;;;;;;6220316;23;19918;-91
2021/12/12 20:34:21;;;;;;;16.83;8.63;;;;;;;;;;6246933;23;20015;-83
2021/12/12 20:36:50;;;;;;;31.15;12.20;;;;;;;;;;6247509;23;20011;-88
2021/12/12 20:39:20;;;;;;;38.20;17.35;;;;;;;;;;6247028;23;20065;-89
2021/12/12 20:42:00;;;;;;;17.38;8.77;;;;;;;;;;6247198;23;20319;-88
2021/12/12 20:44:35;;;;;;;128.77;62.88;;;;;;;;;;6246537;23;20010;-83
2021/12/12 20:47:15;;;;;;;71.10;36.38;;;;;;;;;;6246446;23;20001;-88
2021/12/12 20:49:51;;;;;;;44.03;18.23;;;;;;;;;;6246568;23;20003;-84
2021/12/12 20:52:23;;;;;;;22.30;11.80;;;;;;;;;;6246815;23;20079;-89
2021/12/12 20:54:55;;;;;;;11.88;6.55;;;;;;;;;;6246642;23;20014;-84
2021/12/12 20:57:29;;;;;;;10.50;5.43;;;;;;;;;;6246768;23;20000;-89
2021/12/12 20:59:57;;;;;;;9.43;5.57;;;;;;;;;;6246841;23;20004;-89
2021/12/12 21:02:31;;;;;;;8.68;5.45;;;;;;;;;;6246787;23;20004;-87
2021/12/12 21:05:26;;;;;;;9.57;5.93;;;;;;;;;;6246986;23;20327;-89
2021/12/12 21:07:55;;;;;;;6.05;4.20;;;;;;;;;;6242726;23;20087;-89
2021/12/12 21:10:24;;;;;;;7.38;4.18;;;;;;;;;;6247102;23;20008;-88
2021/12/12 21:12:57;;;;;;;4.97;3.20;;;;;;;;;;6246923;23;20019;-89
2021/12/12 21:15:29;;;;;;;4.65;3.30;;;;;;;;;;6246728;23;20421;-89
2021/12/12 21:17:56;;;;;;;5.47;3.80;;;;;;;;;;6219921;23;20007;-89
2021/12/12 21:20:25;;;;;;;5.90;3.90;;;;;;;;;;6246814;23;20423;-83
2021/12/12 21:23:08;;;;;;;4.00;3.13;;;;;;;;;;6246850;23;20453;-90
2021/12/12 21:25:41;;;;;;;5.57;3.70;;;;;;;;;;6246643;23;20031;-84
2021/12/12 21:28:25;;;;;;;5.45;3.35;;;;;;;;;;6247115;23;20462;-88
2021/12/12 21:31:12;;;;;;;5.63;3.80;;;;;;;;;;6246499;23;20008;-89
2021/12/12 21:33:55;;;;;;;5.25;3.55;;;;;;;;;;6246344;23;20000;-89
2021/12/12 21:36:45;;;;;;;5.47;3.30;;;;;;;;;;6246646;23;20070;-86
2021/12/12 21:39:38;;;;;;;5.00;3.25;;;;;;;;;;6246473;23;20004;-88
2021/12/12 21:42:23;;;;;;;6.00;3.22;;;;;;;;;;6246703;23;20010;-82
2021/12/12 21:44:49;;;;;;;4.25;2.55;;;;;;;;;;6246456;23;20012;-89
2021/12/12 21:47:42;;;;;;;4.63;2.90;;;;;;;;;;6246716;23;20008;-82
2021/12/12 21:50:29;;;;;;;5.72;4.18;;;;;;;;;;6246783;23;20017;-86
2021/12/12 21:53:05;;;;;;;5.13;3.70;;;;;;;;;;6246458;23;20003;-86
2021/12/12 21:55:39;;;;;;;10.93;6.50;;;;;;;;;;6246396;23;20008;-83
2021/12/12 21:58:40;;;;;;;8.00;4.47;;;;;;;;;;6246536;23;20323;-82
2021/12/12 22:01:08;;;;;;;5.13;3.45;;;;;;;;;;6239705;23;20066;-82
2021/12/12 22:03:43;;;;;;;5.05;2.85;;;;;;;;;;6246511;23;20000;-85
2021/12/12 22:06:11;;;;;;;4.63;3.53;;;;;;;;;;6246565;23;20027;-90
2021/12/12 22:08:42;;;;;;;6.30;3.60;;;;;;;;;;6246762;23;20019;-88
2021/12/12 22:11:08;;;;;;;3.58;2.90;;;;;;;;;;6248652;23;20000;-88
2021/12/12 22:13:40;;;;;;;5.40;4.10;;;;;;;;;;6248390;23;20000;-88
2021/12/12 22:16:12;;;;;;;9.05;4.38;;;;;;;;;;6248266;23;20008;-88
2021/12/12 22:18:43;;;;;;;7.65;4.57;;;;;;;;;;6248570;23;20000;-86
2021/12/12 22:21:18;;;;;;;5.25;3.58;;;;;;;;;;6248432;23;20014;-83
2021/12/12 22:23:54;;;;;;;5.97;3.85;;;;;;;;;;6248285;23;20485;-86
2021/12/12 22:26:28;;;;;;;4.30;3.05;;;;;;;;;;6248134;23;20053;-87
2021/12/12 22:28:54;;;;;;;5.72;3.60;;;;;;;;;;6248610;23;20079;-83
2021/12/12 22:31:25;;;;;;;3.30;2.95;;;;;;;;;;6248169;23;20012;-89
2021/12/12 22:34:05;;;;;;;3.55;2.55;;;;;;;;;;6248301;23;20008;-85
2021/12/12 22:36:34;;;;;;;6.80;4.63;;;;;;;;;;6248159;23;20011;-86
2021/12/12 22:39:13;;;;;;;5.97;3.78;;;;;;;;;;6248122;23;20004;-88
2021/12/12 22:41:54;;;;;;;4.85;3.60;;;;;;;;;;6248031;23;20075;-89
2021/12/12 22:44:24;;;;;;;4.30;2.67;;;;;;;;;;6248358;23;20431;-84
